KCDS/CDS METAR and TAF weather

Enter ICAO airport designator
Station Type Date Time Source
KCDS METAR 2021/04/17 01:53 UTC NOAA

KCDS 170153Z AUTO 01014KT 10SM BKN030 OVC040 08/03 A3010 RMK AO2 PK WND 01026/0109 SLP192 T00830028


Station Type Date Time Source
KCDS Decoded METAR 2021/04/17 01:53 UTC NOAA

CHILDRESS MUNICIPAL AIRPORT, TX, United States (KCDS) 34-26N 100-17W 594M
Apr 16, 2021 - 09:53 PM EDT / 2021.04.17 0153 UTC
Wind: from the N (010 degrees) at 16 MPH (14 KT):0
Visibility: 10 mile(s):0
Sky conditions: overcast
Temperature: 46.9 F (8.3 C)
Dew Point: 37.0 F (2.8 C)
Relative Humidity: 68%
Pressure (altimeter): 30.1 in. Hg (1019 hPa)
ob: KCDS 170153Z AUTO 01014KT 10SM BKN030 OVC040 08/03 A3010 RMK AO2 PK WND 01026/0109 SLP192 T00830028
cycle: 2

Station Type Date Time Source
KCDS TAF 2021/04/17 01:06 UTC NOAA

TAF
AMD KCDS 170105Z 1701/1724 36020KT P6SM BKN040
TEMPO 1701/1703 36020KT BKN025
FM170300 01015KT P6SM SCT040

Example: see airport list